createdAt,value
2018-02-12T00:00:21.954Z,85.24
2018-02-12T00:01:21.960Z,85.03
2018-02-12T00:02:21.993Z,84.79
2018-02-12T00:03:21.977Z,84.6
2018-02-12T00:04:21.966Z,84.64
2018-02-12T00:05:21.970Z,84.21
2018-02-12T00:06:21.962Z,83.99
2018-02-12T00:07:22.017Z,84.11
2018-02-12T00:08:21.956Z,84.06
2018-02-12T00:09:21.978Z,83.74
2018-02-12T00:10:21.969Z,83.71
2018-02-12T00:11:21.952Z,83.62
2018-02-12T00:12:21.997Z,83.11
2018-02-12T00:13:21.956Z,83.1
2018-02-12T00:14:21.962Z,83
2018-02-12T00:15:21.961Z,82.93
2018-02-12T00:16:21.966Z,82.95
2018-02-12T00:17:21.986Z,82.48
2018-02-12T00:18:21.969Z,82.79
2018-02-12T00:19:22.215Z,82.84
2018-02-12T00:20:22.197Z,82.57
2018-02-12T00:21:22.206Z,82.79
2018-02-12T00:22:22.223Z,82.42
2018-02-12T00:23:22.200Z,82.39
2018-02-12T00:24:22.207Z,82.51
2018-02-12T00:25:22.200Z,82.4
2018-02-12T00:26:22.207Z,82.33
2018-02-12T00:27:22.212Z,82.62
2018-02-12T00:28:22.198Z,82.47
2018-02-12T00:29:22.202Z,82.61
2018-02-12T00:30:22.218Z,82.68
2018-02-12T00:31:22.210Z,82.67
2018-02-12T00:34:22.230Z,82.35
2018-02-12T00:35:22.228Z,82.68
2018-02-12T00:36:22.211Z,82.76
2018-02-12T00:37:22.214Z,82.57
2018-02-12T00:38:22.201Z,82.8
2018-02-12T00:39:22.223Z,82.77
2018-02-12T00:40:22.204Z,82.65
2018-02-12T00:41:22.211Z,82.79
2018-02-12T00:42:22.222Z,82.79
2018-02-12T00:43:22.209Z,82.92
2018-02-12T00:44:22.211Z,83.21
2018-02-12T00:45:22.217Z,83.06
2018-02-12T00:46:22.213Z,83.1
2018-02-12T00:47:22.220Z,83.01
2018-02-12T00:48:22.254Z,83.1
2018-02-12T00:49:22.483Z,83.1
2018-02-12T00:50:22.484Z,83.13
2018-02-12T00:51:22.486Z,83.31
2018-02-12T00:52:22.487Z,83.39
2018-02-12T00:53:22.482Z,83.44
2018-02-12T00:54:22.479Z,83.37
2018-02-12T00:55:22.493Z,83.57
2018-02-12T00:56:22.484Z,83.52
2018-02-12T00:59:29.798Z,83.65
2018-02-12T01:00:22.495Z,83.61
2018-02-12T01:01:22.486Z,83.54
2018-02-12T01:02:22.501Z,83.66
2018-02-12T01:03:22.511Z,83.71
2018-02-12T01:04:22.484Z,83.71
2018-02-12T01:05:22.491Z,83.72
2018-02-12T01:06:23.052Z,83.73
2018-02-12T01:07:22.494Z,83.84
2018-02-12T01:08:22.622Z,83.99
2018-02-12T01:09:22.488Z,83.93
2018-02-12T01:10:22.497Z,84.04
2018-02-12T01:11:22.490Z,84.11
2018-02-12T01:12:22.499Z,84.14
2018-02-12T01:13:22.513Z,84.05
2018-02-12T01:14:22.511Z,84.19
2018-02-12T01:15:22.505Z,84.16
2018-02-12T01:16:22.490Z,84.24
2018-02-12T01:17:22.495Z,84.48
2018-02-12T01:18:22.501Z,84.54
2018-02-12T01:19:22.755Z,84.55
2018-02-12T01:20:22.737Z,84.57
2018-02-12T01:21:22.765Z,84.72
2018-02-12T01:22:22.747Z,84.78
2018-02-12T01:23:22.770Z,84.8
2018-02-12T01:24:22.734Z,84.88
2018-02-12T01:25:22.741Z,84.91
2018-02-12T01:26:22.757Z,84.84
2018-02-12T01:27:22.747Z,84.9
2018-02-12T01:28:22.743Z,84.9
2018-02-12T01:29:22.743Z,84.88
2018-02-12T01:30:22.778Z,84.97
2018-02-12T01:31:22.747Z,84.94
2018-02-12T01:32:23.777Z,85
2018-02-12T01:33:22.760Z,84.95
2018-02-12T01:34:22.765Z,85.14
2018-02-12T01:35:22.754Z,85.11
2018-02-12T01:36:22.766Z,85.09
2018-02-12T01:37:22.739Z,85.39
2018-02-12T01:38:23.005Z,85.57
2018-02-12T01:39:22.754Z,85.38
2018-02-12T01:40:22.748Z,85.28
2018-02-12T01:41:22.751Z,85.37
2018-02-12T01:42:22.760Z,85.31
2018-02-12T01:43:22.765Z,85.37
2018-02-12T01:44:22.742Z,85.2
2018-02-12T01:45:22.752Z,85.24
2018-02-12T01:46:22.743Z,85.24
2018-02-12T01:47:22.749Z,85.17
2018-02-12T01:48:22.739Z,85.29
2018-02-12T01:49:21.994Z,85.26
2018-02-12T01:50:21.957Z,85.32
2018-02-12T01:51:21.956Z,85.36
2018-02-12T01:52:21.960Z,85.2
2018-02-12T01:53:21.982Z,85.52
2018-02-12T01:54:21.986Z,85.54
2018-02-12T01:55:21.990Z,85.43
2018-02-12T01:56:21.953Z,85.46
2018-02-12T01:57:21.949Z,85.43
2018-02-12T01:58:21.964Z,85.52
2018-02-12T01:59:21.970Z,85.54
2018-02-12T02:00:22.866Z,85.51
2018-02-12T02:01:21.974Z,85.5
2018-02-12T02:02:26.726Z,85.71
2018-02-12T02:03:21.951Z,85.64
2018-02-12T02:04:22.097Z,85.7
2018-02-12T02:05:22.370Z,85.99
2018-02-12T02:06:23.875Z,85.86
2018-02-12T02:07:23.096Z,85.89
2018-02-12T02:08:24.134Z,85.98
2018-02-12T02:09:23.034Z,86.03
2018-02-12T02:10:21.969Z,85.98
2018-02-12T02:11:23.269Z,86.16
2018-02-12T02:12:24.165Z,85.97
2018-02-12T02:13:21.971Z,86.21
2018-02-12T02:14:21.995Z,86.17
2018-02-12T02:15:21.961Z,86.45
2018-02-12T02:16:21.962Z,86.48
2018-02-12T02:17:23.173Z,86.44
2018-02-12T02:18:21.975Z,86.63
2018-02-12T02:19:25.452Z,86.58
2018-02-12T02:20:23.163Z,86.78
2018-02-12T02:21:22.684Z,86.77
2018-02-12T02:22:23.889Z,87.06
2018-02-12T02:23:22.693Z,86.98
2018-02-12T02:24:25.954Z,87.17
2018-02-12T02:25:22.701Z,87.21
2018-02-12T02:26:22.699Z,87
2018-02-12T02:27:22.707Z,87.11
2018-02-12T02:28:23.198Z,87.14
2018-02-12T02:29:22.717Z,87.21
2018-02-12T02:30:25.896Z,87.07
2018-02-12T02:31:22.703Z,87.15
2018-02-12T02:32:22.704Z,87.18
2018-02-12T02:33:24.519Z,87.17
2018-02-12T02:34:22.715Z,87.11
2018-02-12T02:35:22.700Z,87.13
2018-02-12T02:36:23.754Z,87.14
2018-02-12T02:37:22.697Z,87.01
2018-02-12T02:38:25.168Z,86.97
2018-02-12T02:39:22.707Z,86.88
2018-02-12T02:40:22.724Z,86.96
2018-02-12T02:41:22.716Z,87.02
2018-02-12T02:42:22.716Z,87.03
2018-02-12T02:43:22.714Z,86.89
2018-02-12T02:44:30.713Z,86.87
2018-02-12T02:45:22.818Z,86.82
2018-02-12T02:46:24.034Z,86.81
2018-02-12T02:47:22.712Z,86.52
2018-02-12T02:48:22.712Z,86.51
2018-02-12T02:49:22.690Z,86.54
2018-02-12T02:50:22.724Z,86.62
2018-02-12T02:51:21.986Z,86.59
2018-02-12T02:52:21.985Z,86.54
2018-02-12T02:53:21.992Z,86.44
2018-02-12T02:54:22.342Z,86.41
2018-02-12T02:55:21.992Z,86.51
2018-02-12T02:56:22.237Z,86.45
2018-02-12T02:57:22.464Z,86.31
2018-02-12T02:58:21.993Z,86.3
2018-02-12T02:59:23.502Z,86.18
2018-02-12T03:00:23.892Z,86.22
2018-02-12T03:01:23.809Z,86.19
2018-02-12T03:02:21.992Z,86.18
2018-02-12T03:03:22.213Z,86.08
2018-02-12T03:04:22.003Z,86.2
2018-02-12T03:05:23.766Z,86.09
2018-02-12T03:06:29.731Z,86.18
2018-02-12T03:07:22.580Z,86.14
2018-02-12T03:08:23.268Z,86.01
2018-02-12T03:09:21.980Z,85.98
2018-02-12T03:10:22.284Z,85.97
2018-02-12T03:11:21.995Z,85.98
2018-02-12T03:13:22.000Z,85.95
2018-02-12T03:14:22.002Z,85.93
2018-02-12T03:15:23.265Z,85.88
2018-02-12T03:16:22.012Z,85.93
2018-02-12T03:17:23.713Z,85.79
2018-02-12T03:18:21.989Z,85.85
2018-02-12T03:19:23.387Z,85.96
2018-02-12T03:20:21.992Z,85.89
2018-02-12T03:21:22.129Z,85.77
2018-02-12T03:22:22.369Z,85.92
2018-02-12T03:23:22.337Z,85.88
2018-02-12T03:24:22.994Z,85.89
2018-02-12T03:25:22.354Z,85.74
2018-02-12T03:26:22.754Z,85.91
2018-02-12T03:27:22.358Z,85.91
2018-02-12T03:28:22.345Z,85.79
2018-02-12T03:29:23.928Z,85.97
2018-02-12T03:30:26.860Z,85.91
2018-02-12T03:31:31.480Z,85.91
2018-02-12T03:32:22.354Z,85.95
2018-02-12T03:33:24.421Z,85.88
2018-02-12T03:34:22.375Z,85.96
2018-02-12T03:35:24.350Z,85.84
2018-02-12T03:36:25.298Z,85.8
2018-02-12T03:37:22.357Z,85.64
2018-02-12T03:38:26.103Z,85.75
2018-02-12T03:39:22.628Z,85.75
2018-02-12T03:40:22.358Z,85.71
2018-02-12T03:41:22.355Z,85.53
2018-02-12T03:42:22.352Z,85.45
2018-02-12T03:43:22.345Z,85.52
2018-02-12T03:44:23.226Z,85.48
2018-02-12T03:45:22.356Z,85.47
2018-02-12T03:46:25.147Z,85.5
2018-02-12T03:47:22.378Z,85.39
2018-02-12T03:48:24.640Z,85.36
2018-02-12T03:49:26.090Z,85.35
2018-02-12T03:50:23.249Z,85.36
2018-02-12T03:51:22.353Z,85.4
2018-02-12T03:52:24.007Z,85.32
2018-02-12T03:53:23.931Z,85.4
2018-02-12T03:54:22.592Z,85.53
2018-02-12T03:55:22.632Z,85.44
2018-02-12T03:56:22.592Z,85.45
2018-02-12T03:57:22.590Z,85.49
2018-02-12T03:58:23.223Z,85.62
2018-02-12T03:59:22.596Z,85.42
2018-02-12T04:00:23.702Z,85.51
2018-02-12T04:01:26.883Z,85.73
2018-02-12T04:02:22.603Z,85.84
2018-02-12T04:03:22.591Z,86.1
2018-02-12T04:04:22.603Z,86.18
2018-02-12T04:05:22.618Z,86.53
2018-02-12T04:06:22.600Z,86.8
2018-02-12T04:07:22.601Z,86.99
2018-02-12T04:08:30.108Z,87.29
2018-02-12T04:09:22.583Z,87.29
2018-02-12T04:10:24.264Z,87.48
2018-02-12T04:11:22.599Z,87.37
2018-02-12T04:12:31.385Z,87.85
2018-02-12T04:13:22.632Z,88.29
2018-02-12T04:14:22.687Z,88.32
2018-02-12T04:15:22.937Z,88.65
2018-02-12T04:16:24.235Z,88.94
2018-02-12T04:17:22.601Z,88.82
2018-02-12T04:18:22.606Z,89.33
2018-02-12T04:19:25.003Z,89.39
2018-02-12T04:20:22.622Z,89.56
2018-02-12T04:21:22.608Z,89.77
2018-02-12T04:22:22.840Z,89.83
2018-02-12T04:23:22.861Z,89.92
2018-02-12T04:24:22.849Z,89.88
2018-02-12T04:25:22.881Z,90.1
2018-02-12T04:26:22.882Z,90.58
2018-02-12T04:27:23.287Z,90.25
2018-02-12T04:28:22.842Z,90.55
2018-02-12T04:29:22.849Z,90.79
2018-02-12T04:30:22.865Z,91.01
2018-02-12T04:31:22.881Z,90.96
2018-02-12T04:32:24.305Z,91.04
2018-02-12T04:33:26.571Z,91.12
2018-02-12T04:34:22.846Z,91.2
2018-02-12T04:35:24.559Z,90.98
2018-02-12T04:36:23.221Z,91.05
2018-02-12T04:37:22.854Z,91.04
2018-02-12T04:38:24.241Z,91.06
2018-02-12T04:39:22.873Z,91.11
2018-02-12T04:40:22.895Z,91.03
2018-02-12T04:41:22.911Z,91.23
2018-02-12T04:42:22.858Z,91.3
2018-02-12T04:43:28.041Z,91.38
2018-02-12T04:44:22.834Z,91.62
2018-02-12T04:45:22.874Z,91.42
2018-02-12T04:46:22.842Z,91.2
2018-02-12T04:47:22.847Z,91.46
2018-02-12T04:48:22.856Z,91.53
2018-02-12T04:49:22.854Z,91.78
2018-02-12T04:50:22.854Z,91.63
2018-02-12T04:51:23.936Z,91.84
2018-02-12T04:52:24.273Z,91.72
2018-02-12T04:53:22.046Z,91.82
2018-02-12T04:54:22.052Z,91.83
2018-02-12T04:55:22.061Z,91.91
2018-02-12T04:56:22.064Z,91.67
2018-02-12T04:57:26.766Z,91.65
2018-02-12T04:58:22.061Z,92.01
2018-02-12T04:59:22.065Z,91.93
2018-02-12T05:00:22.368Z,91.56
2018-02-12T05:01:22.066Z,91.85
2018-02-12T05:02:24.254Z,91.6
2018-02-12T05:03:24.923Z,91.86
2018-02-12T05:04:22.047Z,91.58
2018-02-12T05:05:22.086Z,91.89
2018-02-12T05:06:22.056Z,91.9
2018-02-12T05:07:22.425Z,91.65
2018-02-12T05:08:22.340Z,91.62
2018-02-12T05:09:24.091Z,91.74
2018-02-12T05:10:22.042Z,91.57
2018-02-12T05:11:25.435Z,91.59
2018-02-12T05:12:22.078Z,91.66
2018-02-12T05:13:22.998Z,91.5
2018-02-12T05:14:24.026Z,91.56
2018-02-12T05:15:22.257Z,91.34
2018-02-12T05:16:22.079Z,91.46
2018-02-12T05:17:24.155Z,91.61
2018-02-12T05:18:22.063Z,91.39
2018-02-12T05:19:22.076Z,91.48
2018-02-12T05:20:22.058Z,91.42
2018-02-12T05:22:22.062Z,91.49
2018-02-12T05:23:26.319Z,91.26
2018-02-12T05:23:41.764Z,91.48
2018-02-12T05:24:41.611Z,91.61
2018-02-12T05:25:41.609Z,92.02
2018-02-12T05:26:41.626Z,91.73
2018-02-12T05:27:41.620Z,92.1
2018-02-12T05:28:41.636Z,91.86
2018-02-12T05:29:42.279Z,91.76
2018-02-12T05:30:41.615Z,91.72
2018-02-12T05:31:43.724Z,91.74
2018-02-12T05:32:43.357Z,91.85
2018-02-12T05:33:45.754Z,91.9
2018-02-12T05:34:41.611Z,91.72
2018-02-12T05:35:41.602Z,91.89
2018-02-12T05:36:42.896Z,91.76
2018-02-12T05:37:41.856Z,91.76
2018-02-12T05:38:45.647Z,91.67
2018-02-12T05:39:41.647Z,91.64
2018-02-12T05:40:41.607Z,91.73
2018-02-12T05:42:44.421Z,91.59
2018-02-12T05:43:41.632Z,92.09
2018-02-12T05:44:41.613Z,91.8
2018-02-12T05:45:41.620Z,92.08
2018-02-12T05:46:41.635Z,92.06
2018-02-12T05:47:41.612Z,91.93
2018-02-12T05:48:41.611Z,91.94
2018-02-12T05:49:41.624Z,92.01
2018-02-12T05:50:41.623Z,91.89
2018-02-12T05:51:43.235Z,92.11
2018-02-12T05:52:45.380Z,92.23
2018-02-12T05:53:45.425Z,92.23
2018-02-12T05:54:41.676Z,92.01
2018-02-12T05:55:41.674Z,92.21
2018-02-12T05:56:42.520Z,92.44
2018-02-12T05:57:44.194Z,92.06
2018-02-12T05:58:41.682Z,92.4
2018-02-12T05:59:41.664Z,92.29
2018-02-12T06:00:41.671Z,92.22
2018-02-12T06:01:41.672Z,92
2018-02-12T06:02:41.677Z,92.34
2018-02-12T06:03:43.155Z,92.17
2018-02-12T06:04:41.676Z,92.41
2018-02-12T06:05:45.040Z,91.99
2018-02-12T06:06:44.750Z,91.94
2018-02-12T06:07:41.676Z,91.94
2018-02-12T06:08:41.681Z,92.02
2018-02-12T06:09:44.685Z,91.87
2018-02-12T06:10:43.683Z,91.73
2018-02-12T06:11:44.780Z,92.05
2018-02-12T06:12:41.656Z,92.2
2018-02-12T06:13:41.666Z,92.11
2018-02-12T06:14:41.673Z,91.95
2018-02-12T06:15:41.666Z,91.84
2018-02-12T06:16:41.678Z,91.65
2018-02-12T06:17:41.700Z,92.01
2018-02-12T06:18:41.665Z,91.95
2018-02-12T06:19:41.672Z,92
2018-02-12T06:20:41.667Z,91.67
2018-02-12T06:21:41.676Z,91.8
2018-02-12T06:22:41.699Z,91.87
2018-02-12T06:23:41.657Z,91.89
2018-02-12T06:24:41.664Z,91.73
2018-02-12T06:25:41.933Z,91.67
2018-02-12T06:26:41.929Z,91.64
2018-02-12T06:27:41.962Z,91.36
2018-02-12T06:28:41.927Z,91.43
2018-02-12T06:29:41.950Z,91.52
2018-02-12T06:30:41.963Z,91.53
2018-02-12T06:31:41.938Z,91.53
2018-02-12T06:32:41.950Z,91.32
2018-02-12T06:33:41.919Z,91.31
2018-02-12T06:34:41.970Z,91.19
2018-02-12T06:35:41.946Z,91.23
2018-02-12T06:36:42.018Z,91.31
2018-02-12T06:37:42.135Z,91.05
2018-02-12T06:38:42.017Z,91.18
2018-02-12T06:39:41.927Z,90.78
2018-02-12T06:40:41.936Z,90.83
2018-02-12T06:41:41.937Z,90.83
2018-02-12T06:42:41.944Z,90.58
2018-02-12T06:43:41.945Z,90.56
2018-02-12T06:44:41.931Z,90.62
2018-02-12T06:45:41.926Z,90.54
2018-02-12T06:46:41.967Z,90.5
2018-02-12T06:47:41.937Z,90.57
2018-02-12T06:48:41.945Z,90.17
2018-02-12T06:49:41.918Z,90.29
2018-02-12T06:50:41.925Z,90.38
2018-02-12T06:51:41.918Z,90.09
2018-02-12T06:52:41.926Z,90.31
2018-02-12T06:53:41.930Z,90.33
2018-02-12T06:54:41.966Z,90.23
2018-02-12T06:55:41.225Z,90.01
2018-02-12T06:56:41.229Z,90.08
2018-02-12T06:57:41.222Z,90.03
2018-02-12T06:58:41.224Z,90.07
2018-02-12T06:59:41.245Z,90.17
2018-02-12T07:00:41.230Z,90.44
2018-02-12T07:01:41.232Z,90.26
2018-02-12T07:02:41.227Z,90.23
2018-02-12T07:03:41.233Z,90.39
2018-02-12T07:04:41.214Z,90.3
2018-02-12T07:05:41.381Z,90.26
2018-02-12T07:06:41.218Z,90.33
2018-02-12T07:07:41.215Z,90.27
2018-02-12T07:08:41.221Z,90.19
2018-02-12T07:09:41.310Z,90.05
2018-02-12T07:10:41.222Z,89.99
2018-02-12T07:11:41.287Z,89.9
2018-02-12T07:12:41.298Z,89.63
2018-02-12T07:13:41.296Z,89.61
2018-02-12T07:14:41.216Z,89.65
2018-02-12T07:15:41.241Z,89.51
2018-02-12T07:16:41.231Z,89.66
2018-02-12T07:17:41.395Z,89.27
2018-02-12T07:18:41.226Z,89.49
2018-02-12T07:19:41.473Z,89.34
2018-02-12T07:20:41.213Z,89.46
2018-02-12T07:21:41.217Z,89.31
2018-02-12T07:22:41.327Z,88.9
2018-02-12T07:23:41.220Z,89.2
2018-02-12T07:24:41.536Z,89.35
2018-02-12T07:25:41.223Z,89.11
2018-02-12T07:26:41.463Z,89.66
2018-02-12T07:27:41.852Z,89.72
2018-02-12T07:28:41.464Z,89.65
2018-02-12T07:29:41.488Z,89.38
2018-02-12T07:30:41.466Z,89.41
2018-02-12T07:31:41.475Z,89.18
2018-02-12T07:32:41.503Z,89.08
2018-02-12T07:33:41.481Z,89
2018-02-12T07:34:41.459Z,88.77
2018-02-12T07:35:41.467Z,88.92
2018-02-12T07:36:41.464Z,88.91
2018-02-12T07:37:41.514Z,89.18
2018-02-12T07:38:41.454Z,89.69
2018-02-12T07:39:41.455Z,90.17
2018-02-12T07:40:41.521Z,89.96
2018-02-12T07:41:42.016Z,90.37
2018-02-12T07:42:41.605Z,90.54
2018-02-12T07:43:41.459Z,90.92
2018-02-12T07:44:42.020Z,91.16
2018-02-12T07:45:41.463Z,91.41
2018-02-12T07:46:41.468Z,91.99
2018-02-12T07:47:41.811Z,91.85
2018-02-12T07:48:41.467Z,91.87
2018-02-12T07:49:42.351Z,91.96
2018-02-12T07:50:41.676Z,91.96
2018-02-12T07:51:41.465Z,91.88
2018-02-12T07:52:41.745Z,92.01
2018-02-12T07:53:41.470Z,92.15
2018-02-12T07:54:41.482Z,92.67
2018-02-12T07:55:41.475Z,92.83
2018-02-12T07:56:41.728Z,92.95
2018-02-12T07:57:41.726Z,92.95
2018-02-12T07:58:41.741Z,93.48
2018-02-12T07:59:41.724Z,93.3
2018-02-12T08:00:41.772Z,93.4
2018-02-12T08:01:41.782Z,93.41
2018-02-12T08:02:41.727Z,93.41
2018-02-12T08:03:41.808Z,93.31
2018-02-12T08:04:41.761Z,93.23
2018-02-12T08:05:42.209Z,93.61
2018-02-12T08:06:42.602Z,93.46
2018-02-12T08:07:41.720Z,93.62
2018-02-12T08:08:42.786Z,93.72
2018-02-12T08:09:41.750Z,93.68
2018-02-12T08:10:41.730Z,93.91
2018-02-12T08:11:41.742Z,94.12
2018-02-12T08:12:42.906Z,94.1
2018-02-12T08:13:41.720Z,94.17
2018-02-12T08:14:42.007Z,94.23
2018-02-12T08:15:41.734Z,94.16
2018-02-12T08:16:41.720Z,94.25
2018-02-12T08:17:41.713Z,94.39
2018-02-12T08:18:41.714Z,94.25
2018-02-12T08:19:41.739Z,94.18
2018-02-12T08:20:41.732Z,94.16
2018-02-12T08:21:41.732Z,94.06
2018-02-12T08:22:41.734Z,93.98
2018-02-12T08:23:41.711Z,93.95
2018-02-12T08:24:41.762Z,93.58
2018-02-12T08:25:41.736Z,93.6
2018-02-12T08:26:41.072Z,93.33
2018-02-12T08:27:41.035Z,92.97
2018-02-12T08:28:41.036Z,93.23
2018-02-12T08:29:41.022Z,93.18
2018-02-12T08:30:41.039Z,93.15
2018-02-12T08:31:41.018Z,93.36
2018-02-12T08:32:41.032Z,93.29
2018-02-12T08:33:41.043Z,93.14
2018-02-12T08:34:41.025Z,93.12
2018-02-12T08:35:41.034Z,93.18
2018-02-12T08:36:41.042Z,93.04
2018-02-12T08:37:41.023Z,93.13
2018-02-12T08:38:41.052Z,93.34
2018-02-12T08:39:41.107Z,93.3
2018-02-12T08:40:41.045Z,93.33
2018-02-12T08:41:41.026Z,93.55
2018-02-12T08:42:41.072Z,93.57
2018-02-12T08:43:41.029Z,93.54
2018-02-12T08:44:41.058Z,93.4
2018-02-12T08:45:41.043Z,93.3
2018-02-12T08:46:41.059Z,93.58
2018-02-12T08:47:41.089Z,93.36
2018-02-12T08:48:41.021Z,93.12
2018-02-12T08:49:41.023Z,93.22
2018-02-12T08:50:41.054Z,93.1
2018-02-12T08:51:41.044Z,93.14
2018-02-12T08:52:41.052Z,93.03
2018-02-12T08:53:41.025Z,92.98
2018-02-12T08:54:41.045Z,93.13
2018-02-12T08:55:41.088Z,92.91
2018-02-12T08:56:41.025Z,93.26
2018-02-12T08:57:41.266Z,93.08
2018-02-12T08:58:41.307Z,92.85
2018-02-12T08:59:41.263Z,92.76
2018-02-12T09:00:41.285Z,92.86
2018-02-12T09:01:41.271Z,92.82
2018-02-12T09:02:41.271Z,92.94
2018-02-12T09:03:41.278Z,92.08
2018-02-12T09:04:41.266Z,91.96
2018-02-12T09:05:41.272Z,91.91
2018-02-12T09:06:41.259Z,91.78
2018-02-12T09:07:41.276Z,91.79
2018-02-12T09:08:41.327Z,91.66
2018-02-12T09:09:41.279Z,91.55
2018-02-12T09:10:41.297Z,91.86
2018-02-12T09:11:41.266Z,91.58
2018-02-12T09:12:41.271Z,91.73
2018-02-12T09:13:41.271Z,91.44
2018-02-12T09:14:41.263Z,90.62
2018-02-12T09:15:41.282Z,90.78
2018-02-12T09:16:41.267Z,90.27
2018-02-12T09:17:41.277Z,90.25
2018-02-12T09:18:41.284Z,89.33
2018-02-12T09:19:41.297Z,89.86
2018-02-12T09:20:41.271Z,89.82
2018-02-12T09:21:41.304Z,89.84
2018-02-12T09:22:41.273Z,89.29
2018-02-12T09:23:41.279Z,89.84
2018-02-12T09:24:41.295Z,89.5
2018-02-12T09:25:41.270Z,89.29
2018-02-12T09:26:41.278Z,88.71
2018-02-12T09:27:41.607Z,88.78
2018-02-12T09:28:41.621Z,87.98
2018-02-12T09:29:41.621Z,88.14
2018-02-12T09:30:41.638Z,88.39
2018-02-12T09:31:41.651Z,88.68
2018-02-12T09:32:41.654Z,88.69
2018-02-12T09:33:41.619Z,88.73
2018-02-12T09:34:41.633Z,88.31
2018-02-12T09:35:41.641Z,88.11
2018-02-12T09:36:41.655Z,87.81
2018-02-12T09:37:41.645Z,87.87
2018-02-12T09:38:41.622Z,87.52
2018-02-12T09:39:41.625Z,88.11
2018-02-12T09:40:41.647Z,87.22
2018-02-12T09:41:41.629Z,86.5
2018-02-12T09:42:41.630Z,87.38
2018-02-12T09:43:41.625Z,87.85
2018-02-12T09:44:41.676Z,87.35
2018-02-12T09:45:41.634Z,87.55
2018-02-12T09:46:41.614Z,87.16
2018-02-12T09:47:41.615Z,87.49
2018-02-12T09:48:41.629Z,87.04
2018-02-12T09:49:41.663Z,87.51
2018-02-12T09:50:41.638Z,87.39
2018-02-12T09:51:41.651Z,87.44
2018-02-12T09:52:33.990Z,87.52
2018-02-12T09:53:33.869Z,87.84
2018-02-12T09:54:33.882Z,87.36
2018-02-12T09:55:33.870Z,87.56
2018-02-12T09:56:33.908Z,87.77
2018-02-12T09:57:33.881Z,86.84
2018-02-12T09:58:33.883Z,87.47
2018-02-12T09:59:33.881Z,87.04
2018-02-12T10:00:33.893Z,86.83
2018-02-12T10:01:33.964Z,85.99
2018-02-12T10:02:33.897Z,85.04
2018-02-12T10:03:33.881Z,84.27
2018-02-12T10:04:33.876Z,83.74
2018-02-12T10:05:33.882Z,84.38
2018-02-12T10:06:33.909Z,85
2018-02-12T10:07:41.018Z,83.81
2018-02-12T10:08:35.413Z,83.02
2018-02-12T10:09:39.735Z,83.38
2018-02-12T10:10:41.230Z,83.81
2018-02-12T10:11:39.597Z,82.88
2018-02-12T10:12:41.019Z,82.81
2018-02-12T10:13:42.465Z,82.95
2018-02-12T10:14:46.976Z,83.36
2018-02-12T10:15:39.205Z,83.77
2018-02-12T10:16:40.674Z,84.4
2018-02-12T10:17:42.096Z,83.03
2018-02-12T10:18:42.509Z,81.6
2018-02-12T10:19:47.016Z,81.38
2018-02-12T10:20:39.233Z,80.21
2018-02-12T10:21:37.601Z,79.88
2018-02-12T10:22:42.135Z,79.88
2018-02-12T10:23:37.451Z,78.93
2018-02-12T10:24:41.937Z,79.01
2018-02-12T10:25:40.351Z,78.4
2018-02-12T10:26:41.755Z,78.91
2018-02-12T10:27:40.110Z,77.84
2018-02-12T10:28:41.556Z,78.42
2018-02-12T10:29:39.928Z,75.96
2018-02-12T10:30:38.341Z,76.63
2018-02-12T10:31:39.733Z,76.88
2018-02-12T10:32:41.294Z,77.98
2018-02-12T10:33:39.608Z,77.61
2018-02-12T10:34:44.058Z,78.19
2018-02-12T10:35:39.360Z,78.51
2018-02-12T10:36:46.935Z,77.38
2018-02-12T10:37:39.153Z,77.73
2018-02-12T10:38:40.591Z,76.63
2018-02-12T10:39:42.028Z,77.49
2018-02-12T10:40:37.324Z,75.75
2018-02-12T10:41:41.850Z,76.01
2018-02-12T10:42:40.306Z,76.32
2018-02-12T10:43:41.749Z,75.74
2018-02-12T10:44:40.131Z,75.87
2018-02-12T10:45:41.574Z,75.32
2018-02-12T10:46:41.989Z,75.65
2018-02-12T10:47:44.728Z,76.75
2018-02-12T10:48:41.799Z,76.34
2018-02-12T10:49:40.148Z,76.33
2018-02-12T10:50:41.605Z,76.7
2018-02-12T10:51:39.997Z,76.22
2018-02-12T10:52:41.401Z,76.85
2018-02-12T10:53:39.784Z,76.11
2018-02-12T10:54:41.212Z,77.4
2018-02-12T10:55:42.666Z,78.13
2018-02-12T10:56:47.291Z,78.61
2018-02-12T10:57:42.461Z,77.92
2018-02-12T10:58:40.885Z,77.98
2018-02-12T10:59:34.585Z,77.12
2018-02-12T11:00:34.577Z,76.8
2018-02-12T11:01:34.590Z,76.11
2018-02-12T11:02:35.904Z,76.89
2018-02-12T11:03:34.577Z,76.58
2018-02-12T11:04:34.586Z,77.02
2018-02-12T11:05:34.579Z,77.26
2018-02-12T11:06:34.585Z,76.97
2018-02-12T11:07:35.542Z,77.16
2018-02-12T11:08:34.584Z,78.15
2018-02-12T11:09:35.882Z,77.77
2018-02-12T11:10:35.422Z,76.73
2018-02-12T11:11:34.731Z,76.44
2018-02-12T11:12:36.069Z,76.05
2018-02-12T11:13:34.586Z,76.32
2018-02-12T11:14:36.244Z,77.11
2018-02-12T11:15:34.591Z,76.05
2018-02-12T11:16:34.598Z,75.94
2018-02-12T11:17:35.413Z,76.14
2018-02-12T11:18:34.585Z,74.52
2018-02-12T11:19:34.583Z,74.74
2018-02-12T11:20:35.639Z,73.93
2018-02-12T11:21:34.625Z,75.07
2018-02-12T11:22:34.585Z,74.51
2018-02-12T11:23:34.596Z,75.2
2018-02-12T11:24:35.986Z,75.56
2018-02-12T11:25:34.266Z,75.01
2018-02-12T11:26:34.232Z,75.08
2018-02-12T11:27:34.252Z,73.96
2018-02-12T11:28:34.368Z,74.03
2018-02-12T11:29:34.221Z,73.92
2018-02-12T11:30:34.233Z,74.45
2018-02-12T11:31:34.266Z,74.6
2018-02-12T11:32:34.305Z,73.05
2018-02-12T11:33:34.235Z,72.52
2018-02-12T11:34:34.355Z,72.82
2018-02-12T11:35:34.228Z,72.85
2018-02-12T11:36:34.223Z,72.55
2018-02-12T11:37:34.568Z,71.81
2018-02-12T11:38:34.228Z,73.34
2018-02-12T11:39:34.228Z,71.26
2018-02-12T11:40:34.234Z,70.69
2018-02-12T11:41:34.223Z,69.9
2018-02-12T11:42:35.446Z,69.67
2018-02-12T11:43:34.274Z,69.82
2018-02-12T11:44:34.244Z,70.03
2018-02-12T11:45:34.286Z,70.96
2018-02-12T11:46:34.236Z,71.16
2018-02-12T11:47:34.258Z,70.91
2018-02-12T11:48:34.282Z,70.11
2018-02-12T11:49:34.233Z,70.49
2018-02-12T11:50:34.261Z,70.04
2018-02-12T11:51:34.228Z,70.48
2018-02-12T11:52:34.302Z,70.97
2018-02-12T11:53:34.249Z,71.36
2018-02-12T11:54:34.231Z,71.3
2018-02-12T11:55:34.240Z,72.59
2018-02-12T11:56:34.305Z,72.45
2018-02-12T11:57:34.309Z,73.09
2018-02-12T11:58:34.313Z,73.25
2018-02-12T11:59:34.303Z,72.01
2018-02-12T12:00:34.292Z,71.45
2018-02-12T12:01:34.322Z,71.32
2018-02-12T12:02:34.304Z,71.84
2018-02-12T12:03:34.517Z,71.68
2018-02-12T12:04:34.312Z,70.75
2018-02-12T12:05:34.303Z,71.95
2018-02-12T12:06:34.299Z,70.16
2018-02-12T12:07:34.301Z,70.52
2018-02-12T12:08:34.321Z,71.32
2018-02-12T12:09:34.295Z,70.33
2018-02-12T12:10:34.306Z,68.11
2018-02-12T12:11:34.289Z,69.44
2018-02-12T12:12:34.294Z,69.08
2018-02-12T12:13:34.288Z,68.11
2018-02-12T12:14:34.293Z,66.38
2018-02-12T12:15:34.315Z,66.57
2018-02-12T12:16:34.295Z,67.29
2018-02-12T12:17:34.313Z,66.73
2018-02-12T12:18:34.293Z,67.71
2018-02-12T12:19:36.619Z,67.11
2018-02-12T12:20:34.291Z,66.7
2018-02-12T12:21:34.295Z,67.25
2018-02-12T12:22:34.293Z,67.27
2018-02-12T12:23:34.368Z,66.08
2018-02-12T12:24:34.328Z,65.76
2018-02-12T12:25:34.299Z,66.16
2018-02-12T12:26:34.301Z,65.46
2018-02-12T12:27:34.264Z,65.18
2018-02-12T12:28:34.285Z,65.16
2018-02-12T12:29:34.282Z,65.19
2018-02-12T12:30:34.269Z,65.08
2018-02-12T12:31:34.265Z,65.38
2018-02-12T12:32:34.259Z,65.27
2018-02-12T12:33:34.267Z,64.72
2018-02-12T12:34:34.622Z,65.62
2018-02-12T12:35:34.266Z,64.24
2018-02-12T12:36:34.265Z,65.37
2018-02-12T12:37:34.278Z,64.76
2018-02-12T12:38:34.294Z,64.55
2018-02-12T12:39:34.299Z,63.58
2018-02-12T12:40:34.312Z,63.54
2018-02-12T12:41:34.429Z,63.71
2018-02-12T12:42:34.267Z,63.85
2018-02-12T12:43:34.287Z,63.25
2018-02-12T12:44:34.289Z,63.16
2018-02-12T12:45:34.271Z,63.04
2018-02-12T12:46:34.269Z,63.02
2018-02-12T12:47:34.262Z,61.91
2018-02-12T12:48:34.260Z,62.59
2018-02-12T12:49:34.273Z,62.08
2018-02-12T12:50:34.267Z,62.76
2018-02-12T12:51:34.275Z,61.31
2018-02-12T12:52:34.281Z,61.93
2018-02-12T12:53:34.269Z,61.37
2018-02-12T12:54:34.282Z,60.43
2018-02-12T12:55:34.308Z,61.22
2018-02-12T12:56:34.275Z,60.59
2018-02-12T12:57:34.268Z,61.26
2018-02-12T12:58:34.280Z,60.44
2018-02-12T12:59:34.278Z,60.98
2018-02-12T13:00:34.298Z,61.18
2018-02-12T13:01:34.288Z,61.83